Pagina principale
METAR-TAF:

METAR-TAF

Aeroporti :

Aeroporto Internazionale L. F. Wade

Bermuda, Bermuda

latitudine: 32-22N, longitudine: 064-41W, altezza: 6 m

Osservazione

Il bollettino è stato emesso 33 minuti fa, alle 00:55 UTC
Vento 9 kt da sud-ovest
Temperature 26°C
Umidità 84%
Pressione 1016 hPa
Visibilità 10 km o più
Poco nuvoloso ad un'altezza di 1800 ft
Poco nuvoloso ad un'altezza di 30000 ft

METAR: TXKF 220055Z 22009KT 9999 FEW018 FEW300 26/23 Q1016

Ora: 22:28 (01:28 UTC)

Previsione

Il bollettino è stato emesso 1 ora e 53 minuti fa, alle 23:35 UTC
Previsione valida dal 22 alle 00 UTC al 22 alle 24 UTC
Vento 12 kt da sud-ovest
Visibilità 10 km o più
Poco nuvoloso ad un'altezza di 2100 ft
Nubi sparse ad un'altezza di 30000 ft

TAF: TXKF 212335Z 2200/2224 22012KT 9999 FEW021 SCT300

Osservazioni e previsioni meteorologiche di più di 4000 aeroporti (messaggi METAR e TAF).

Le stazioni disponibili sono rappresentate dai dischi gialli e rossi sulla carta.

Puntare il mouse per vedere il nome della stazione.

Clicca sopra per visualizzare le osservazioni e previsioni meteorologiche.

Per cambiare la mappa : fare clic sui pulsanti verdi con una croce nera per ingrandire, il pulsante verde con un trattino per diminuire, o sulla freccia verde per le mappe adiacenti.


METAR-TAF: